Summer Point, Vermont
Current Conditions -  °F | °C
As of 11:35 AM on Sunday 21 Dec 2014 (Local Time) from K6B0 Reporting Station
Overcast Overcast  
Wind Chill: -5°   Ceiling: 3000
Heat Index: -5°   Visibility: 7mi
Dew Point: -6°   Wind: 0mph
Humidity: 94%   Direction: NA
Pressure: 30.34"   Gusts: NA
Location:  44.0804°N, 73.3324°W
Report Text: K6B0 211635Z AUTO 00000KT 7SM OVC030 M05/M05 A3034 RMK AO2 T10471055
Loading
Personal Weather Stations






























Interactive Weather Map New forecast layout! Learn more

10-Day Weather Forecast

Advertisements
Track Severe Weather on mobile